Weather History for KCNB - February, 2014

Change the Weather History Date:

Thursday, February 27, 2014

  Actual Average (KMML) Record (KMML)
Temperature  
Mean Temperature -2 °F -  
Max Temperature 6 °F 34 °F 57 °F (1976)
Min Temperature -9 °F 19 °F -18 °F (1962)
Degree Days  
Heating Degree Days 66    
Moisture  
Dew Point -11 °F    
Average Humidity 64    
Maximum Humidity 81    
Minimum Humidity 49    
Precipitation  
Precipitation 0.00 in - - ()
Sea Level Pressure  
Sea Level Pressure 30.09 in    
Wind  
Wind Speed 9 mph (NE)    
Max Wind Speed 17 mph    
Max Gust Speed 21 mph    
Visibility 10 miles    
Events      
Averages and records for this station are not official NWS values.
T = Trace of Precipitation, MM = Missing Value Source: NWS Daily Summary

Daily Weather History Graph

Daily Weather History Graph

Search for Another Location

Airport or City:

Trip Planner

Search our weather history database for the weather conditions in past years. The results will help you decide how hot, cold, wet, or windy it might be!

Date:

Astronomy

Feb. 27, 2014 Rise Set
Actual Time 7:05 AM CST 6:10 PM CST
Civil Twilight 6:36 AM CST 6:39 PM CST
Nautical Twilight 6:02 AM CST 7:13 PM CST
Astronomical Twilight 5:29 AM CST 7:47 PM CST
Moon 5:42 AM CST (2/27) 4:35 PM CST (2/27)
Length of Visible Light 12h 02m
Length of Day
11h 04m
Waning Crescent, 4% of the Moon is Illuminated
Feb 27
Waning Crescent
Mar 1
New
Mar 8
First Quarter
Mar 16
Full
Mar 23
Last Quarter

Hourly Weather History & Observations

Time (CST) Temp. Windchill Dew Point Humidity Pressure Visibility Wind Dir Wind Speed Gust Speed Precip Events Conditions
12:15 AM -2.4 °F -20.9 °F -12.3 °F 63% 30.09 in 10.0 mi NNW 12.7 mph 19.6 mph N/A   Clear
12:35 AM -3.3 °F -20.3 °F -12.1 °F 66% 30.09 in 10.0 mi North 10.4 mph - N/A   Clear
12:54 AM -4.0 °F -23.0 °F -12.5 °F 67% 30.10 in 10.0 mi NNW 12.7 mph 17.3 mph N/A   Clear
1:14 AM -4.4 °F -23.4 °F -13.0 °F 66% 30.11 in 10.0 mi NNW 12.7 mph 20.7 mph N/A   Clear
1:34 AM -5.1 °F -21.5 °F -13.0 °F 69% 30.11 in 10.0 mi NNW 9.2 mph - N/A   Clear
1:55 AM -5.3 °F -22.8 °F -13.5 °F 67% 30.12 in 10.0 mi NNW 10.4 mph - N/A   Clear
2:14 AM -5.8 °F -19.9 °F -13.5 °F 69% 30.12 in 10.0 mi North 6.9 mph - N/A   Clear
2:34 AM -5.8 °F -22.4 °F -13.2 °F 70% 30.13 in 10.0 mi NNW 9.2 mph - N/A   Clear
2:55 AM -6.0 °F -22.6 °F -14.8 °F 66% 30.13 in 10.0 mi NNW 9.2 mph - N/A   Clear
3:14 AM -6.3 °F -21.9 °F -14.8 °F 67% 30.13 in 10.0 mi North 8.1 mph - N/A   Clear
3:35 AM -6.9 °F -22.5 °F -14.3 °F 70% 30.14 in 10.0 mi NNW 8.1 mph - N/A   Clear
3:54 AM -7.1 °F -23.9 °F -14.6 °F 70% 30.14 in 10.0 mi North 9.2 mph - N/A   Clear
4:14 AM -7.2 °F -25.2 °F -14.8 °F 70% 30.15 in 10.0 mi NNW 10.4 mph - N/A   Clear
4:34 AM -7.6 °F -24.6 °F -15.7 °F 68% 30.15 in 10.0 mi North 9.2 mph - N/A   Clear
4:55 AM -7.6 °F -25.7 °F -15.9 °F 67% 30.16 in 10.0 mi North 10.4 mph - N/A   Clear
5:14 AM -7.8 °F -24.8 °F -16.4 °F 66% 30.17 in 10.0 mi North 9.2 mph - N/A   Clear
5:34 AM -8.1 °F -21.2 °F -16.4 °F 67% 30.17 in 10.0 mi North 5.8 mph - N/A   Clear
5:55 AM -8.5 °F -21.6 °F -15.9 °F 70% 30.17 in 10.0 mi NNW 5.8 mph - N/A   Clear
6:15 AM -8.7 °F -23.4 °F -16.2 °F 69% 30.17 in 10.0 mi North 6.9 mph - N/A   Clear
6:34 AM -9.0 °F -22.3 °F -16.2 °F 71% 30.17 in 10.0 mi NNW 5.8 mph - N/A   Clear
6:55 AM -9.4 °F -24.3 °F -16.1 °F 73% 30.18 in 10.0 mi NNW 6.9 mph - N/A   Clear
7:15 AM -9.6 °F -21.1 °F -16.6 °F 71% 30.18 in 10.0 mi NW 4.6 mph - N/A   Clear
7:35 AM -9.4 °F -22.7 °F -16.8 °F 70% 30.18 in 10.0 mi NNW 5.8 mph - N/A   Clear
7:55 AM -8.7 °F -20.0 °F -17.0 °F 67% 30.19 in 10.0 mi North 4.6 mph - N/A   Clear
8:14 AM -8.0 °F -23.9 °F -17.1 °F 64% 30.19 in 10.0 mi NNW 8.1 mph - N/A   Clear
8:34 AM -7.2 °F -20.1 °F -17.9 °F 60% 30.19 in 10.0 mi NNW 5.8 mph - N/A   Clear
8:55 AM -6.2 °F -20.4 °F -17.1 °F 59% 30.19 in 10.0 mi North 6.9 mph - N/A   Clear
9:15 AM -5.4 °F -19.5 °F -17.9 °F 55% 30.20 in 10.0 mi North 6.9 mph - N/A   Clear
9:35 AM -5.1 °F -19.1 °F -18.0 °F 54% 30.20 in 10.0 mi North 6.9 mph - N/A   Clear
9:54 AM -4.4 °F -15.0 °F -17.5 °F 53% 30.20 in 10.0 mi NNE 4.6 mph - N/A   Clear
10:15 AM -4.2 °F -12.6 °F -17.3 °F 53% 30.19 in 10.0 mi NW 3.5 mph - N/A   Clear
10:34 AM -2.9 °F - -15.7 °F 54% 30.18 in 10.0 mi Calm Calm - N/A   Clear
10:55 AM -2.4 °F -12.7 °F -15.3 °F 54% 30.18 in 10.0 mi NW 4.6 mph - N/A   Clear
11:14 AM -1.5 °F - -14.8 °F 53% 30.18 in 10.0 mi Calm Calm - N/A   Clear
11:35 AM -0.8 °F - -14.8 °F 52% 30.17 in 10.0 mi Calm Calm - N/A   Clear
11:54 AM -0.2 °F - -14.3 °F 52% 30.17 in 10.0 mi Calm Calm - N/A   Clear
12:15 PM 0.7 °F - -13.2 °F 52% 30.16 in 10.0 mi Calm Calm - N/A   Clear
12:34 PM 1.8 °F -5.8 °F -12.8 °F 51% 30.14 in 10.0 mi ENE 3.5 mph - N/A   Clear
12:55 PM 2.1 °F - -12.3 °F 51% 30.13 in 10.0 mi Calm Calm - N/A   Clear
1:15 PM 2.7 °F -4.8 °F -11.7 °F 51% 30.12 in 10.0 mi ESE 3.5 mph - N/A   Clear
1:34 PM 3.0 °F -4.4 °F -11.7 °F 50% 30.11 in 10.0 mi East 3.5 mph - N/A   Clear
1:54 PM 4.3 °F -4.9 °F -10.5 °F 51% 30.10 in 10.0 mi SE 4.6 mph - N/A   Clear
2:15 PM 4.5 °F -6.3 °F -10.1 °F 51% 30.09 in 10.0 mi East 5.8 mph - N/A   Clear
2:35 PM 5.0 °F -6.9 °F -9.4 °F 52% 30.08 in 10.0 mi ESE 6.9 mph - N/A   Clear
2:54 PM 5.2 °F - -9.4 °F 51% 30.07 in 10.0 mi Calm Calm - N/A   Clear
3:15 PM 5.7 °F -3.2 °F -9.6 °F 49% 30.06 in 10.0 mi SE 4.6 mph - N/A   Clear
3:34 PM 6.3 °F -8.4 °F -8.3 °F 51% 30.05 in 10.0 mi ESE 10.4 mph - N/A   Clear
3:54 PM 6.4 °F -5.2 °F -7.6 °F 53% 30.05 in 10.0 mi ESE 6.9 mph - N/A   Clear
4:15 PM 6.8 °F -6.9 °F -7.2 °F 53% 30.04 in 10.0 mi SE 9.2 mph - N/A   Clear
4:34 PM 6.8 °F -6.9 °F -5.8 °F 56% 30.03 in 10.0 mi ESE 9.2 mph - N/A   Clear
4:54 PM 6.8 °F -6.9 °F -6.0 °F 56% 30.02 in 10.0 mi ESE 9.2 mph - N/A   Clear
5:15 PM 6.8 °F -6.9 °F -5.6 °F 57% 30.01 in 10.0 mi ESE 9.2 mph - N/A   Clear
5:34 PM 6.1 °F -10.9 °F -5.1 °F 60% 30.00 in 10.0 mi East 13.8 mph - N/A   Clear
5:55 PM 4.3 °F -13.2 °F -4.2 °F 68% 30.00 in 10.0 mi East 13.8 mph 17.3 mph N/A   Mostly Cloudy
6:14 PM 2.8 °F -17.0 °F -4.4 °F 72% 30.00 in 10.0 mi East 17.3 mph - N/A   Scattered Clouds
6:34 PM 2.1 °F -16.6 °F -4.4 °F 74% 30.00 in 10.0 mi East 15.0 mph - N/A   Clear
6:55 PM 2.3 °F -15.0 °F -4.0 °F 75% 29.99 in 10.0 mi ESE 12.7 mph - N/A   Clear
7:15 PM 1.8 °F -15.7 °F -4.2 °F 76% 29.99 in 10.0 mi ESE 12.7 mph - N/A   Clear
7:34 PM 1.4 °F -15.3 °F -4.0 °F 78% 29.99 in 10.0 mi ESE 11.5 mph - N/A   Clear
7:55 PM 1.4 °F -16.1 °F -4.0 °F 78% 29.99 in 10.0 mi ESE 12.7 mph - N/A   Clear
8:14 PM 1.2 °F -15.6 °F -4.0 °F 79% 29.98 in 10.0 mi ESE 11.5 mph - N/A   Clear
8:35 PM 1.0 °F -14.0 °F -4.0 °F 79% 29.98 in 10.0 mi SE 9.2 mph - N/A   Clear
8:55 PM 0.5 °F -14.6 °F -4.2 °F 81% 29.97 in 10.0 mi ESE 9.2 mph - N/A   Clear
9:14 PM 0.5 °F -12.3 °F -4.0 °F 81% 29.97 in 10.0 mi SE 6.9 mph - N/A   Clear
9:34 PM 1.9 °F -14.7 °F -3.8 °F 77% 29.97 in 10.0 mi SSE 11.5 mph - N/A   Clear
9:55 PM 1.4 °F -13.5 °F -4.0 °F 78% 29.97 in 10.0 mi SSE 9.2 mph - N/A   Clear
10:14 PM 1.9 °F -14.7 °F -4.9 °F 73% 29.96 in 10.0 mi SSE 11.5 mph - N/A   Clear
10:35 PM 1.8 °F -14.0 °F -5.6 °F 71% 29.95 in 10.0 mi SSE 10.4 mph - N/A   Clear
10:55 PM 1.4 °F -16.1 °F -5.8 °F 72% 29.93 in 10.0 mi SE 12.7 mph - N/A   Clear
11:14 PM 1.2 °F -15.6 °F -5.8 °F 72% 29.92 in 10.0 mi SSE 11.5 mph - N/A   Clear
11:35 PM 1.0 °F -14.9 °F -6.2 °F 72% 29.91 in 10.0 mi SE 10.4 mph - N/A   Clear
11:55 PM 0.7 °F -16.2 °F -6.7 °F 71% 29.90 in 10.0 mi SE 11.5 mph - N/A   Clear